CheckWX is a tool to help pilots better visualize weather data.  It is not intended as a substitute for an official pre-flight weather briefing.

14:30:51 UTC

KRKS TAF
Rock Springs-Sweetwater County Airport
Rock Springs, Wyoming, USA
KRKS 261120Z 2612/2712 25014KT P6SM BKN050 FM261900 25011KT P6SM BKN060 FM270200 20007KT P6SM BKN060 FM270900 21006KT 3SM -SN OVC020

Jan-26@
12:00 UTC

Jan-26 @ 12:00 UTC

Jan-26@
19:00 UTC

Jan-26 @ 19:00 UTC

KRKS 261120Z 2612/2712 25014KT P6SM BKN050
Wind
  • 250° at 14 KTS
Cloud Levels
  • Broken at 5,000' AGL

Jan-26@
19:00 UTC

Jan-26 @ 19:00 UTC

Jan-27@
02:00 UTC

Jan-27 @ 02:00 UTC

FM261900 25011KT P6SM BKN060

From

From Standard forecast or significant change

Wind
  • 250° at 11 KTS
Cloud Levels
  • Broken at 6,000' AGL

Jan-27@
02:00 UTC

Jan-27 @ 02:00 UTC

Jan-27@
09:00 UTC

Jan-27 @ 09:00 UTC

FM270200 20007KT P6SM BKN060

From

From Standard forecast or significant change

Wind
  • 200° at 7 KTS
Cloud Levels
  • Broken at 6,000' AGL

Jan-27@
09:00 UTC

Jan-27 @ 09:00 UTC

Jan-27@
12:00 UTC

Jan-27 @ 12:00 UTC

FM270900 21006KT 3SM -SN OVC020

From

From Standard forecast or significant change

Wind
  • 210° at 6 KTS
Conditions
Light Snow
Cloud Levels
  • Overcast at 2,000' AGL